This is the latest recevied weather packets stored in our database for station/object KK7KHO. If no packets are shown the sender has not sent any weather packets the latest 10 day(s).
| Time | Temp. | Humidity | Pressure | Rain* | Wind** | Luminosity | Snow |
|---|---|---|---|---|---|---|---|
| 1777590033 | 21.67° C | 61% | 1016.9 hPa | 0 mm | - | 358 W/m² | - |
| 1777589729 | 21.67° C | 61% | 1016.9 hPa | 0 mm | - | 387 W/m² | - |
| 1777589427 | 22.22° C | 61% | 1016.8 hPa | 0 mm | - | 440 W/m² | - |
| 1777589123 | 21.67° C | 62% | 1017.1 hPa | 0 mm | - | 462 W/m² | - |
| 1777588819 | 21.67° C | 61% | 1017.1 hPa | 0 mm | - | 489 W/m² | - |
| 1777588515 | 21.11° C | 63% | 1017.1 hPa | 0 mm | - | 542 W/m² | - |
| 1777588211 | 21.67° C | 63% | 1017.2 hPa | 0 mm | - | 541 W/m² | - |
| 1777587906 | 21.11° C | 64% | 1017.1 hPa | 0 mm | - | 471 W/m² | - |
| 1777587602 | 21.67° C | 63% | 1017.3 hPa | 0 mm | - | 443 W/m² | - |
| 1777587297 | 21.67° C | 63% | 1017.3 hPa | 0 mm | - | 547 W/m² | - |
| 1777586993 | 21.67° C | 64% | 1017.3 hPa | 0 mm | - | 483 W/m² | - |
| 1777586688 | 21.11° C | 65% | 1017.4 hPa | 0 mm | - | 581 W/m² | - |
| 1777586384 | 21.11° C | 65% | 1017.4 hPa | 0 mm | - | 585 W/m² | - |
| 1777586084 | 21.67° C | 63% | 1017.5 hPa | 0 mm | - | 566 W/m² | - |
| 1777585782 | 21.11° C | 66% | 1017.5 hPa | 0 mm | - | 520 W/m² | - |
| 1777585477 | 21.11° C | 64% | 1017.7 hPa | 0 mm | - | 547 W/m² | - |
| 1777585173 | 21.11° C | 65% | 1017.7 hPa | 0 mm | - | 571 W/m² | - |
| 1777584869 | 21.11° C | 65% | 1017.7 hPa | 0 mm | - | 648 W/m² | - |
| 1777584567 | 21.67° C | 64% | 1017.6 hPa | 0 mm | - | 666 W/m² | - |
| 1777584263 | 20.56° C | 65% | 1017.6 hPa | 0 mm | - | 661 W/m² | - |
| 1777583963 | 20.56° C | 66% | 1017.7 hPa | 0 mm | - | 654 W/m² | - |
| 1777583658 | 20.56° C | 66% | 1017.7 hPa | 0 mm | - | 669 W/m² | - |
| 1777583357 | 20.56° C | 66% | 1018 hPa | 0 mm | - | 668 W/m² | - |
| 1777583052 | 20.56° C | 67% | 1018 hPa | 0 mm | - | 643 W/m² | - |
| 1777582749 | 20° C | 66% | 1018 hPa | 0 mm | - | 575 W/m² | - |
* Rain latest hour (hover to see other rain measurements)
** Current wind speed in m/s (hover to see current wind gust speed)